East Quogue, New York
Current Conditions -  °F | °C
As of 4:13 AM on Thursday 27 Nov 2014 (Local Time) from KFOK Reporting Station
Broken Clouds Broken Clouds  
Wind Chill: 31°   Ceiling: 2000
Heat Index: 37°   Visibility: 10mi
Dew Point: 33°   Wind: 8mph
Humidity: 86%   Direction: 310°NW
Pressure: 29.87"   Gusts: NA
Location:  40.85°N, 72.58°W
Report Text: KFOK 270913Z AUTO 31007KT 10SM BKN020 BKN044 BKN080 03/01 A2987 RMK AO2 T00280006 TSNO
Loading
Personal Weather Stations






























Interactive Weather Map New forecast layout! Learn more

10-Day Weather Forecast

Advertisements
Track Severe Weather on mobile